Indian River, Michigan
Current Conditions -  °F | °C
As of 3:54 AM on Saturday 25 Oct 2014 (Local Time) from KPLN Reporting Station
Overcast Overcast  
Wind Chill: 53°   Ceiling: 2900
Heat Index: 53°   Visibility: 10mi
Dew Point: 48°   Wind: 12mph
Humidity: 83%   Direction: 250°WSW
Pressure: 29.73"   Gusts: 22mph
Location:  45.41°N, 84.61°W
Report Text: KPLN 250754Z AUTO 25010G19KT 10SM OVC029 12/09 A2973 RMK AO2 SLP069 T01170089
Loading
Personal Weather Stations






























Interactive Weather Map
Tropical Storm Tracking
New forecast layout! Learn more

10-Day Weather Forecast

Advertisements
Track Severe Weather on mobile